createdAt,value
2017-12-04T00:04:57.285Z,40.23
2017-12-04T00:09:58.800Z,42.50
2017-12-04T00:15:00.329Z,47.80
2017-12-04T00:20:02.641Z,43.17
2017-12-04T00:25:04.165Z,42.60
2017-12-04T00:30:05.673Z,37.60
2017-12-04T00:35:07.192Z,43.23
2017-12-04T00:40:08.738Z,45.53
2017-12-04T00:45:10.230Z,37.50
2017-12-04T00:50:11.740Z,37.60
2017-12-04T00:55:13.205Z,41.17
2017-12-04T01:00:14.716Z,40.17
2017-12-04T01:05:16.208Z,36.93
2017-12-04T01:10:17.721Z,40.80
2017-12-04T01:15:19.292Z,38.03
2017-12-04T01:20:20.807Z,42.70
2017-12-04T01:25:22.332Z,44.90
2017-12-04T01:30:23.857Z,40.30
2017-12-04T01:35:26.119Z,41.97
2017-12-04T01:40:27.646Z,36.77
2017-12-04T01:45:29.213Z,38.60
2017-12-04T01:50:30.745Z,45.00
2017-12-04T01:55:33.201Z,45.30
2017-12-04T02:00:34.746Z,35.53
2017-12-04T02:05:36.249Z,38.60
2017-12-04T02:10:37.758Z,33.07
2017-12-04T02:15:39.259Z,34.50
2017-12-04T02:20:40.774Z,34.87
2017-12-04T02:25:43.169Z,38.27
2017-12-04T02:30:44.703Z,34.57
2017-12-04T02:35:46.292Z,33.20
2017-12-04T02:40:48.596Z,42.20
2017-12-04T02:45:50.110Z,41.37
2017-12-04T02:50:51.601Z,36.33
2017-12-04T02:55:53.863Z,38.93
2017-12-04T03:00:55.377Z,36.90
2017-12-04T03:05:56.899Z,41.33
2017-12-04T03:10:58.439Z,41.73
2017-12-04T03:15:59.994Z,32.10
2017-12-04T03:21:01.478Z,45.57
2017-12-04T03:26:02.964Z,48.07
2017-12-04T03:31:04.462Z,38.00
2017-12-04T03:36:06.713Z,38.80
2017-12-04T03:41:08.233Z,44.03
2017-12-04T03:46:09.782Z,36.87
2017-12-04T03:51:12.073Z,41.33
2017-12-04T03:56:13.608Z,37.90
2017-12-04T04:01:15.109Z,32.83
2017-12-04T04:06:16.748Z,41.57
2017-12-04T04:11:18.269Z,40.73
2017-12-04T04:16:19.843Z,44.17
2017-12-04T04:21:21.370Z,41.60
2017-12-04T04:26:23.892Z,38.07
2017-12-04T04:31:25.399Z,36.47
2017-12-04T04:36:26.952Z,50.87
2017-12-04T04:41:28.590Z,37.67
2017-12-04T04:46:30.069Z,40.77
2017-12-04T04:51:31.563Z,31.30
2017-12-04T04:56:33.086Z,35.97
2017-12-04T05:01:34.621Z,34.03
2017-12-04T05:06:36.173Z,38.00
2017-12-04T05:11:37.759Z,38.37
2017-12-04T05:16:40.199Z,35.77
2017-12-04T05:21:48.631Z,36.97
2017-12-04T05:26:50.145Z,38.13
2017-12-04T05:31:52.428Z,37.90
2017-12-04T05:36:54.804Z,34.77
2017-12-04T05:41:56.352Z,32.40
2017-12-04T05:46:57.888Z,28.10
2017-12-04T05:51:59.471Z,33.07
2017-12-04T05:57:00.995Z,27.97
2017-12-04T06:02:03.252Z,35.47
2017-12-04T06:07:04.762Z,40.83
2017-12-04T06:12:06.368Z,30.73
2017-12-04T06:17:08.120Z,37.60
2017-12-04T06:22:09.686Z,49.33
2017-12-04T06:27:11.229Z,45.97
2017-12-04T06:32:13.814Z,41.23
2017-12-04T06:37:16.064Z,36.27
2017-12-04T06:42:17.692Z,38.90
2017-12-04T06:47:19.195Z,42.00
2017-12-04T06:52:20.701Z,37.23
2017-12-04T06:57:22.979Z,31.57
2017-12-04T07:02:25.350Z,37.27
2017-12-04T07:07:26.886Z,39.53
2017-12-04T07:12:28.422Z,35.30
2017-12-04T07:17:29.966Z,36.07
2017-12-04T07:22:32.276Z,32.97
2017-12-04T07:27:33.789Z,33.83
2017-12-04T07:32:35.295Z,33.70
2017-12-04T07:37:36.824Z,35.03
2017-12-04T07:42:38.363Z,27.77
2017-12-04T07:47:39.910Z,35.10
2017-12-04T07:52:41.500Z,40.00
2017-12-04T07:57:43.018Z,48.73
2017-12-04T08:02:45.331Z,33.20
2017-12-04T08:07:46.863Z,40.03
2017-12-04T08:12:48.358Z,31.77
2017-12-04T08:17:49.870Z,33.57
2017-12-04T08:22:51.437Z,43.33
2017-12-04T08:27:52.972Z,25.97
2017-12-04T08:32:54.509Z,25.93
2017-12-04T08:37:56.780Z,30.97
2017-12-04T08:42:58.277Z,35.40
2017-12-04T08:47:59.787Z,34.83
2017-12-04T08:53:01.330Z,29.87
2017-12-04T08:58:02.876Z,38.13
2017-12-04T09:03:04.392Z,30.60
2017-12-04T09:08:05.916Z,35.63
2017-12-04T09:13:07.525Z,35.40
2017-12-04T09:18:09.242Z,32.33
2017-12-04T09:23:11.520Z,32.37
2017-12-04T09:28:13.764Z,30.60
2017-12-04T09:33:15.315Z,30.70
2017-12-04T09:38:16.831Z,28.73
2017-12-04T09:43:18.333Z,37.17
2017-12-04T09:48:19.870Z,32.27
2017-12-04T09:53:22.125Z,30.30
2017-12-04T09:58:23.640Z,33.10
2017-12-04T10:03:25.189Z,33.83
2017-12-04T10:08:27.457Z,29.87
2017-12-04T10:13:28.969Z,33.27
2017-12-04T10:18:30.502Z,25.70
2017-12-04T10:23:32.001Z,35.87
2017-12-04T10:28:33.529Z,26.23
2017-12-04T10:33:35.104Z,21.60
2017-12-04T10:38:36.625Z,36.37
2017-12-04T10:43:38.134Z,28.80
2017-12-04T10:48:39.639Z,25.73
2017-12-04T10:53:41.195Z,22.43
2017-12-04T10:58:43.454Z,23.30
2017-12-04T11:03:45.046Z,31.43
2017-12-04T11:08:47.310Z,29.73
2017-12-04T11:13:48.800Z,37.13
2017-12-04T11:18:50.333Z,27.50
2017-12-04T11:23:51.895Z,27.53
2017-12-04T11:28:53.402Z,34.07
2017-12-04T11:33:54.942Z,21.80
2017-12-04T11:38:56.479Z,26.43
2017-12-04T11:43:58.015Z,30.17
2017-12-04T11:48:59.536Z,25.47
2017-12-04T11:54:01.141Z,33.63
2017-12-04T11:59:02.694Z,28.53
2017-12-04T12:04:04.984Z,28.47
2017-12-04T12:09:07.260Z,29.80
2017-12-04T12:14:09.505Z,25.83
2017-12-04T12:19:11.038Z,27.47
2017-12-04T12:24:12.574Z,24.33
2017-12-04T12:29:14.817Z,27.77
2017-12-04T12:34:16.344Z,28.77
2017-12-04T12:39:18.581Z,19.63
2017-12-04T12:44:20.139Z,21.10
2017-12-04T12:49:21.712Z,20.03
2017-12-04T12:54:23.266Z,25.60
2017-12-04T12:59:24.802Z,25.70
2017-12-04T13:04:26.332Z,24.30
2017-12-04T13:09:27.886Z,20.03
2017-12-04T13:14:29.422Z,19.97
2017-12-04T13:19:30.949Z,19.67
2017-12-04T13:24:33.196Z,14.30
2017-12-04T13:29:34.713Z,19.23
2017-12-04T13:34:54.830Z,18.67
2017-12-04T13:39:56.382Z,23.27
2017-12-04T13:44:58.642Z,18.03
2017-12-04T13:50:00.152Z,18.20
2017-12-04T13:55:01.673Z,17.63
2017-12-04T14:00:03.179Z,17.87
2017-12-04T14:05:04.748Z,21.10
2017-12-04T14:10:06.266Z,28.37
2017-12-04T14:15:07.753Z,15.00
2017-12-04T14:20:10.059Z,18.70
2017-12-04T14:25:12.312Z,21.50
2017-12-04T14:30:13.900Z,21.70
2017-12-04T14:35:16.154Z,16.90
2017-12-04T14:40:17.668Z,19.37
2017-12-04T14:45:19.226Z,21.93
2017-12-04T14:50:21.715Z,21.30
2017-12-04T14:55:24.088Z,22.10
2017-12-04T15:00:25.595Z,18.50
2017-12-04T15:05:27.130Z,17.80
2017-12-04T15:10:29.449Z,17.27
2017-12-04T15:15:31.009Z,22.97
2017-12-04T15:20:34.497Z,19.77
2017-12-04T15:25:36.773Z,16.10
2017-12-04T15:30:38.334Z,22.07
2017-12-04T15:35:40.670Z,21.03
2017-12-04T15:40:42.204Z,18.70
2017-12-04T15:45:44.485Z,21.63
2017-12-04T15:50:46.724Z,22.83
2017-12-04T15:55:48.282Z,22.47
2017-12-04T16:00:50.641Z,30.80
2017-12-04T16:05:52.251Z,22.50
2017-12-04T16:10:53.807Z,38.73
2017-12-04T16:15:55.369Z,20.60
2017-12-04T16:20:56.964Z,21.70
2017-12-04T16:25:58.679Z,21.10
2017-12-04T16:31:01.010Z,22.10
2017-12-04T16:36:02.754Z,19.50
2017-12-04T16:41:04.307Z,17.73
2017-12-04T16:46:05.837Z,19.97
2017-12-04T16:51:07.388Z,21.20
2017-12-04T16:56:08.963Z,30.97
2017-12-04T17:01:10.506Z,25.20
2017-12-04T17:06:12.088Z,30.57
2017-12-04T17:11:13.650Z,23.83
2017-12-04T17:16:15.142Z,31.17
2017-12-04T17:21:17.022Z,20.60
2017-12-04T17:26:18.639Z,21.13
2017-12-04T17:31:20.195Z,26.50
2017-12-04T17:36:21.868Z,26.00
2017-12-04T17:41:23.381Z,26.37
2017-12-04T17:46:25.142Z,27.97
2017-12-04T17:51:26.740Z,30.93
2017-12-04T17:56:28.338Z,35.67
2017-12-04T18:01:29.861Z,32.87
2017-12-04T18:06:31.404Z,47.60
2017-12-04T18:11:32.949Z,34.10
2017-12-04T18:16:34.482Z,27.47
2017-12-04T18:21:36.084Z,36.37
2017-12-04T18:26:37.642Z,28.17
2017-12-04T18:31:39.905Z,29.77
2017-12-04T18:36:42.334Z,33.77
2017-12-04T18:41:44.067Z,30.67
2017-12-04T18:46:45.661Z,37.53
2017-12-04T18:51:47.309Z,33.77
2017-12-04T18:56:49.631Z,32.53
2017-12-04T19:01:51.217Z,31.20
2017-12-04T19:06:52.841Z,34.67
2017-12-04T19:11:55.220Z,36.10
2017-12-04T19:16:57.597Z,28.80
2017-12-04T19:21:59.192Z,45.10
2017-12-04T19:27:00.783Z,36.23
2017-12-04T19:32:02.521Z,37.87
2017-12-04T19:37:04.095Z,37.60
2017-12-04T19:42:06.504Z,33.40
2017-12-04T19:47:08.141Z,38.20
2017-12-04T19:52:09.682Z,45.30
2017-12-04T19:57:11.314Z,41.00
2017-12-04T20:02:12.917Z,55.50
2017-12-04T20:07:14.496Z,37.53
2017-12-04T20:12:16.123Z,41.40
2017-12-04T20:17:17.744Z,49.93
2017-12-04T20:22:19.308Z,43.80
2017-12-04T20:27:20.962Z,50.53
2017-12-04T20:32:22.507Z,48.20
2017-12-04T20:37:24.089Z,60.40
2017-12-04T20:42:25.665Z,45.23
2017-12-04T20:47:27.274Z,46.83
2017-12-04T20:52:29.619Z,45.77
2017-12-04T20:57:31.248Z,50.60
2017-12-04T21:02:33.547Z,32.77
2017-12-04T21:07:49.436Z,33.30
2017-12-04T21:13:09.451Z,37.00
2017-12-04T21:18:11.038Z,30.47
2017-12-04T21:23:12.642Z,43.70
2017-12-04T21:28:14.296Z,34.70
2017-12-04T21:33:15.855Z,50.90
2017-12-04T21:38:17.488Z,38.00
2017-12-04T21:43:19.117Z,40.70
2017-12-04T21:48:20.705Z,43.67
2017-12-04T21:53:23.137Z,30.83
2017-12-04T21:58:24.668Z,38.73
2017-12-04T22:03:26.965Z,44.27
2017-12-04T22:08:28.472Z,36.57
2017-12-04T22:13:30.012Z,37.57
2017-12-04T22:18:31.846Z,38.80
2017-12-04T22:23:34.226Z,44.87
2017-12-04T22:28:35.857Z,39.03
2017-12-04T22:33:37.406Z,47.87
2017-12-04T22:38:38.942Z,46.10
2017-12-04T22:43:41.250Z,34.00
2017-12-04T22:48:42.747Z,38.03
2017-12-04T22:53:44.294Z,39.30
2017-12-04T22:58:45.818Z,40.67
2017-12-04T23:03:47.347Z,46.80
2017-12-04T23:08:48.844Z,48.43
2017-12-04T23:13:50.373Z,41.03
2017-12-04T23:18:51.858Z,45.13
2017-12-04T23:23:53.412Z,45.73
2017-12-04T23:28:55.054Z,44.80
2017-12-04T23:33:56.556Z,45.80
2017-12-04T23:38:58.046Z,37.03
2017-12-04T23:43:59.581Z,40.37
2017-12-04T23:49:01.133Z,41.63
2017-12-04T23:54:02.710Z,40.30
2017-12-04T23:59:04.217Z,49.73
